Winkelman, Arizona
Current Conditions -  °F | °C
As of 3:55 PM on Thursday 18 Dec 2014 (Local Time) from KAVQ Reporting Station
Clear Clear  
Wind Chill: 56°   Ceiling: Unl
Heat Index: 56°   Visibility: 10mi
Dew Point: 43°   Wind: 6mph
Humidity: 61%   Direction: 310°NW
Pressure: 30.1"   Gusts: NA
Location:  32.99°N, 110.77°W
Report Text: KAVQ 182255Z AUTO 31005KT 10SM CLR 14/06 A3010 RMK AO2 T01350061
Loading
Personal Weather Stations






























Interactive Weather Map New forecast layout! Learn more

10-Day Weather Forecast

Advertisements
Track Severe Weather on mobile